Time;durP1;ratioP1;P1;durP2;ratioP2;P2;SDS_P1;SDS_P2;PMS_P1;PMS_P2;Temp;Humidity;BMP_temperature;BMP_pressure;BME280_temperature;BME280_humidity;BME280_pressure;Samples;Min_cycle;Max_cycle;Signal;HPM_P1;HPM_P2
2022/09/17 00:01:00;;;;;;;1.53;1.30;;;;;;;-145.69;100.00;71712.81;5096499;28;20198;-76
2022/09/17 00:03:28;;;;;;;2.60;1.63;;;;;;;-145.69;100.00;71712.81;5082458;28;20199;-75
2022/09/17 00:05:59;;;;;;;3.73;1.70;;;;;;;-145.69;100.00;71706.84;5076031;28;20229;-76
2022/09/17 00:08:25;;;;;;;2.70;1.77;;;;;;;-145.69;100.00;71696.91;5075728;28;20202;-76
2022/09/17 00:10:52;;;;;;;3.87;1.67;;;;;;;-145.69;100.00;71696.91;5076090;28;20201;-76
2022/09/17 00:13:18;;;;;;;5.13;1.40;;;;;;;-145.69;100.00;71700.88;5076121;28;20205;-76
2022/09/17 00:15:47;;;;;;;2.13;1.27;;;;;;;-145.69;100.00;71704.88;5091401;28;20580;-76
2022/09/17 00:18:14;;;;;;;6.23;1.40;;;;;;;-145.69;100.00;71706.84;5096231;28;20202;-76
2022/09/17 00:20:42;;;;;;;5.00;1.40;;;;;;;-145.69;100.00;71712.81;5094204;28;20209;-76
2022/09/17 00:23:09;;;;;;;2.60;1.20;;;;;;;-145.69;100.00;71710.84;5095962;28;20209;-76
2022/09/17 00:25:37;;;;;;;9.60;1.63;;;;;;;-145.69;100.00;71712.81;5095936;28;20205;-76
2022/09/17 00:28:04;;;;;;;3.73;1.30;;;;;;;-145.69;100.00;71712.81;5078803;28;20195;-76
2022/09/17 00:30:30;;;;;;;1.33;1.10;;;;;;;-145.69;100.00;71720.78;5073946;28;20202;-76
2022/09/17 00:32:58;;;;;;;2.67;1.40;;;;;;;-145.69;100.00;71716.81;5075553;28;20213;-76
2022/09/17 00:35:25;;;;;;;2.13;1.50;;;;;;;-145.69;100.00;71710.84;5075395;28;20209;-76
2022/09/17 00:37:51;;;;;;;2.20;1.30;;;;;;;-145.69;100.00;71716.81;5075330;28;20210;-76
2022/09/17 00:40:19;;;;;;;1.93;1.30;;;;;;;-145.69;100.00;71704.88;5093341;28;20675;-76
2022/09/17 00:42:48;;;;;;;2.07;1.10;;;;;;;-145.69;100.00;71702.88;5095712;28;20194;-76
2022/09/17 00:45:17;;;;;;;1.90;1.33;;;;;;;-145.69;100.00;71710.84;5095735;28;20733;-76
2022/09/17 00:47:47;;;;;;;2.40;1.20;;;;;;;-145.69;100.00;71716.81;5095276;28;20232;-77
2022/09/17 00:50:17;;;;;;;3.67;1.50;;;;;;;-145.69;100.00;71712.81;5078463;28;20227;-76
2022/09/17 00:52:47;;;;;;;2.20;1.40;;;;;;;-145.69;100.00;71720.78;5075205;28;20199;-76
2022/09/17 00:55:19;;;;;;;3.43;1.23;;;;;;;-145.69;100.00;71722.78;5075051;28;20210;-76
2022/09/17 00:57:46;;;;;;;3.53;1.40;;;;;;;-145.69;100.00;71724.75;5075314;28;20238;-76
2022/09/17 01:00:15;;;;;;;4.43;1.40;;;;;;;-145.69;100.00;71728.75;5074971;28;20673;-76
2022/09/17 01:02:42;;;;;;;3.07;1.40;;;;;;;-145.69;100.00;71724.75;5075408;28;20615;-76
2022/09/17 01:05:10;;;;;;;2.10;1.20;;;;;;;-145.69;100.00;71732.72;5075117;28;20195;-75
2022/09/17 01:08:05;;;;;;;1.80;1.40;;;;;;;-145.69;100.00;71734.72;5074870;28;20226;-75
2022/09/17 01:10:50;;;;;;;4.87;1.40;;;;;;;-145.69;100.00;71734.72;5074911;28;20233;-76
2022/09/17 01:13:28;;;;;;;1.87;1.30;;;;;;;-145.69;100.00;71736.72;5080588;28;20190;-77
2022/09/17 01:16:03;;;;;;;4.03;1.63;;;;;;;-145.69;100.00;71734.72;5066711;28;20670;-76
2022/09/17 01:18:45;;;;;;;3.95;1.50;;;;;;;-145.69;100.00;71724.75;5054477;28;20447;-76
2022/09/17 01:21:50;;;;;;;2.43;1.40;;;;;;;-145.69;100.00;71720.78;5054642;28;20302;-76
2022/09/17 01:24:59;;;;;;;1.87;1.20;;;;;;;-145.69;100.00;71734.72;5054579;28;20286;-76
2022/09/17 01:27:52;;;;;;;10.37;1.80;;;;;;;-145.69;100.00;71732.72;5054297;28;20686;-77
2022/09/17 01:30:42;;;;;;;4.70;1.63;;;;;;;-145.69;100.00;71736.72;5051952;28;20203;-76
2022/09/17 01:33:13;;;;;;;3.87;1.30;;;;;;;-145.69;100.00;71748.66;5054494;28;20214;-77
2022/09/17 01:35:49;;;;;;;3.30;1.40;;;;;;;-145.69;100.00;71752.63;5054202;28;20662;-76
2022/09/17 01:38:26;;;;;;;2.27;1.20;;;;;;;-145.69;100.00;71752.63;5080338;28;20255;-76
2022/09/17 01:40:59;;;;;;;2.53;1.40;;;;;;;-145.69;100.00;71742.69;5094545;28;20209;-76
2022/09/17 01:43:33;;;;;;;3.17;1.40;;;;;;;-145.69;100.00;71736.72;5094165;28;20202;-76
2022/09/17 01:46:04;;;;;;;1.83;1.10;;;;;;;-145.69;100.00;71736.72;5093129;28;20205;-76
2022/09/17 01:48:34;;;;;;;2.40;1.47;;;;;;;-145.69;100.00;71736.72;5094454;28;20255;-76
2022/09/17 01:51:07;;;;;;;1.40;1.30;;;;;;;-145.69;100.00;71736.72;5077376;28;20199;-75
2022/09/17 01:53:41;;;;;;;3.97;1.40;;;;;;;-145.69;100.00;71726.75;5074043;28;20199;-76
2022/09/17 01:56:10;;;;;;;4.27;1.33;;;;;;;-145.69;100.00;71726.75;5074968;28;20198;-75
2022/09/17 01:58:41;;;;;;;3.27;1.40;;;;;;;-145.69;100.00;71720.78;5073851;28;20206;-76
2022/09/17 02:01:13;;;;;;;2.60;1.40;;;;;;;-145.69;100.00;71738.69;5073957;28;20198;-76
2022/09/17 02:03:44;;;;;;;4.60;1.53;;;;;;;-145.69;100.00;71736.72;5073779;28;20249;-76
2022/09/17 02:06:14;;;;;;;2.70;1.47;;;;;;;-145.69;100.00;71736.72;5084341;28;20226;-76
2022/09/17 02:08:45;;;;;;;5.13;1.50;;;;;;;-145.69;100.00;71744.66;5093962;28;20665;-75
2022/09/17 02:11:16;;;;;;;4.40;1.60;;;;;;;-145.69;100.00;71746.66;5093846;28;20652;-76
2022/09/17 02:13:47;;;;;;;2.33;1.50;;;;;;;-145.69;100.00;71748.66;5093791;28;20194;-75
2022/09/17 02:16:19;;;;;;;4.13;1.40;;;;;;;-145.69;100.00;71762.56;5093904;28;20206;-76
2022/09/17 02:18:50;;;;;;;4.33;1.73;;;;;;;-145.69;100.00;71748.66;5077043;28;20900;-77
2022/09/17 02:21:25;;;;;;;2.53;1.57;;;;;;;-145.69;100.00;71762.56;5073394;28;20661;-76
2022/09/17 02:24:02;;;;;;;6.20;1.70;;;;;;;-145.69;100.00;71780.50;5073520;28;20211;-76
2022/09/17 02:26:29;;;;;;;3.60;1.83;;;;;;;-145.69;100.00;71782.47;5073411;28;20272;-77
2022/09/17 02:29:02;;;;;;;4.73;1.77;;;;;;;-145.69;100.00;71788.44;5074193;28;20199;-77
2022/09/17 02:31:31;;;;;;;4.40;1.80;;;;;;;-145.69;100.00;71796.41;5093563;28;20292;-75
2022/09/17 02:34:01;;;;;;;3.90;1.80;;;;;;;-145.69;100.00;71808.34;5093438;28;20201;-75
2022/09/17 02:36:28;;;;;;;2.73;1.90;;;;;;;-145.69;100.00;71810.34;5093803;28;20206;-75
2022/09/17 02:38:59;;;;;;;2.30;1.77;;;;;;;-145.69;100.00;71804.38;5093807;28;20209;-76
2022/09/17 02:41:36;;;;;;;3.07;1.90;;;;;;;-145.69;100.00;71796.41;5090201;28;20191;-75
2022/09/17 02:44:12;;;;;;;2.20;1.60;;;;;;;-145.69;100.00;71784.47;5074281;28;20202;-76
2022/09/17 02:46:53;;;;;;;2.83;1.60;;;;;;;-145.69;100.00;71778.50;5073315;28;20225;-76
2022/09/17 02:49:37;;;;;;;2.40;1.40;;;;;;;-145.69;100.00;71780.50;5073095;28;20227;-76
2022/09/17 02:52:14;;;;;;;2.87;1.63;;;;;;;-145.69;100.00;71776.50;5073101;28;20546;-76
2022/09/17 02:54:53;;;;;;;2.57;1.50;;;;;;;-145.69;100.00;71780.50;5085807;28;20198;-75
2022/09/17 02:57:23;;;;;;;3.00;1.40;;;;;;;-145.69;100.00;71784.47;5072987;28;20206;-76
2022/09/17 02:59:58;;;;;;;4.23;1.80;;;;;;;-145.69;100.00;71786.47;5073097;28;20199;-75
2022/09/17 03:02:32;;;;;;;1.33;1.23;;;;;;;-145.69;100.00;71778.50;5073031;28;20198;-76
2022/09/17 03:05:00;;;;;;;2.83;1.40;;;;;;;-145.69;100.00;71780.50;5074792;28;20542;-76
2022/09/17 03:07:28;;;;;;;3.03;1.80;;;;;;;-145.69;100.00;71790.44;5092791;28;20228;-76
2022/09/17 03:09:54;;;;;;;5.07;1.87;;;;;;;-145.69;100.00;71784.47;5093191;28;20292;-76
2022/09/17 03:12:23;;;;;;;1.70;1.43;;;;;;;-145.69;100.00;71782.47;5078134;28;20665;-75
2022/09/17 03:14:50;;;;;;;2.57;1.67;;;;;;;-145.69;100.00;71780.50;5052840;28;20547;-75
2022/09/17 03:17:16;;;;;;;3.93;1.47;;;;;;;-145.69;100.00;71780.50;5064149;28;20194;-76
2022/09/17 03:19:44;;;;;;;6.00;1.63;;;;;;;-145.69;100.00;71784.47;5093029;28;20710;-75
2022/09/17 03:22:12;;;;;;;5.30;1.73;;;;;;;-145.69;100.00;71778.50;5092847;28;20550;-74
2022/09/17 03:24:39;;;;;;;2.93;1.87;;;;;;;-145.69;100.00;71776.50;5093069;28;20263;-75
2022/09/17 03:27:05;;;;;;;3.10;2.23;;;;;;;-145.69;100.00;71780.50;5092902;28;20226;-75
2022/09/17 03:29:33;;;;;;;2.93;2.10;;;;;;;-145.69;100.00;71788.44;5092141;28;20229;-75
2022/09/17 03:31:59;;;;;;;5.95;2.90;;;;;;;-145.69;100.00;71780.50;5092042;28;20944;-75
2022/09/17 03:34:26;;;;;;;4.60;2.40;;;;;;;-145.69;100.00;71792.44;5092650;28;20645;-75
2022/09/17 03:36:54;;;;;;;4.73;2.40;;;;;;;-145.69;100.00;71796.41;5077918;28;20384;-75
2022/09/17 03:39:21;;;;;;;5.07;2.53;;;;;;;-145.69;100.00;71804.38;5072693;28;20575;-75
2022/09/17 03:41:47;;;;;;;7.03;2.85;;;;;;;-145.69;100.00;71808.34;5071956;28;20438;-75
2022/09/17 03:44:14;;;;;;;10.10;3.13;;;;;;;-145.69;100.00;71810.34;5072175;28;20199;-75
2022/09/17 03:46:41;;;;;;;5.60;2.50;;;;;;;-145.69;100.00;71812.31;5083179;28;20225;-77
2022/09/17 03:49:07;;;;;;;3.17;2.87;;;;;;;-145.69;100.00;71814.31;5092396;28;20230;-76
2022/09/17 03:51:34;;;;;;;6.50;3.60;;;;;;;-145.69;100.00;71820.28;5092803;28;20248;-76
2022/09/17 03:54:02;;;;;;;6.47;2.67;;;;;;;-145.69;100.00;71830.25;5092645;28;20205;-77
2022/09/17 03:56:28;;;;;;;5.67;2.80;;;;;;;-145.69;100.00;71836.22;5092409;28;20653;-74
2022/09/17 03:58:58;;;;;;;5.40;3.00;;;;;;;-145.69;100.00;71848.16;5078104;28;20195;-74
2022/09/17 04:01:24;;;;;;;4.10;2.97;;;;;;;-145.69;100.00;71848.16;5072531;28;20252;-76
2022/09/17 04:03:51;;;;;;;6.90;2.87;;;;;;;-145.69;100.00;71864.06;5072094;28;20209;-75
2022/09/17 04:06:17;;;;;;;5.83;2.87;;;;;;;-145.69;100.00;71862.06;5075534;28;20222;-76
2022/09/17 04:08:44;;;;;;;6.43;2.97;;;;;;;-145.69;100.00;71862.06;5075926;28;20226;-75
2022/09/17 04:11:13;;;;;;;7.13;3.00;;;;;;;-145.69;100.00;71868.06;5094756;28;20200;-76
2022/09/17 04:13:40;;;;;;;3.10;2.80;;;;;;;-145.69;100.00;71862.06;5096105;28;20209;-75
2022/09/17 04:16:07;;;;;;;3.70;2.67;;;;;;;-145.69;100.00;71850.13;5096016;28;20668;-75
2022/09/17 04:18:34;;;;;;;5.03;3.30;;;;;;;-145.69;100.00;71856.09;5096330;28;20202;-75
2022/09/17 04:21:00;;;;;;;5.73;3.27;;;;;;;-145.69;100.00;71860.09;5094202;28;20193;-75
2022/09/17 04:23:27;;;;;;;8.10;3.20;;;;;;;-145.69;100.00;71856.09;5095588;28;20202;-75
2022/09/17 04:25:53;;;;;;;4.83;3.30;;;;;;;-145.69;100.00;71868.06;5096098;28;20248;-76
2022/09/17 04:28:21;;;;;;;6.83;3.20;;;;;;;-145.69;100.00;71868.06;5095680;28;20225;-76
2022/09/17 04:30:48;;;;;;;6.83;3.40;;;;;;;-145.69;100.00;71870.03;5093148;28;20198;-76
2022/09/17 04:33:14;;;;;;;10.93;3.60;;;;;;;-145.69;100.00;71872.03;5075587;28;20194;-76
2022/09/17 04:35:41;;;;;;;7.77;3.80;;;;;;;-145.69;100.00;71880.00;5075637;28;20203;-75
2022/09/17 04:38:07;;;;;;;8.67;3.87;;;;;;;-145.69;100.00;71883.97;5075364;28;20681;-75
2022/09/17 04:40:34;;;;;;;6.70;4.20;;;;;;;-145.69;100.00;71887.94;5075575;28;20203;-75
2022/09/17 04:43:02;;;;;;;7.23;3.90;;;;;;;-145.69;100.00;71889.94;5078830;28;20213;-75
2022/09/17 04:45:32;;;;;;;5.30;3.23;;;;;;;-145.69;100.00;71891.94;5095605;28;20194;-76
2022/09/17 04:47:58;;;;;;;6.93;3.63;;;;;;;-145.69;100.00;71895.91;5095674;28;20229;-75
2022/09/17 04:50:25;;;;;;;7.63;3.27;;;;;;;-145.69;100.00;71895.91;5095390;28;20708;-75
2022/09/17 04:52:51;;;;;;;6.10;3.23;;;;;;;-145.69;100.00;71903.88;5095389;28;20198;-76
2022/09/17 04:55:18;;;;;;;9.37;3.10;;;;;;;-145.69;100.00;71891.94;5089168;28;20195;-75
2022/09/17 04:57:48;;;;;;;4.77;3.03;;;;;;;-145.69;100.00;71893.91;5074925;28;20202;-75
2022/09/17 05:00:16;;;;;;;4.43;2.73;;;;;;;-145.69;100.00;71905.88;5075316;28;20201;-76
2022/09/17 05:02:46;;;;;;;11.37;2.40;;;;;;;-145.69;100.00;71915.81;5075099;28;20199;-76
2022/09/17 05:05:13;;;;;;;5.03;2.43;;;;;;;-145.69;100.00;71927.75;5075151;28;20285;-76
2022/09/17 05:07:41;;;;;;;8.63;2.00;;;;;;;-145.69;100.00;71923.78;5073700;28;20231;-75
2022/09/17 05:10:09;;;;;;;3.17;2.30;;;;;;;-145.69;100.00;71919.78;5055014;28;20286;-75
2022/09/17 05:12:35;;;;;;;4.80;2.23;;;;;;;-145.69;100.00;71927.75;5054634;28;20208;-75
2022/09/17 05:15:03;;;;;;;7.13;2.27;;;;;;;-145.69;100.00;71931.72;5054984;28;20203;-75
2022/09/17 05:17:29;;;;;;;8.57;2.10;;;;;;;-145.69;100.00;71919.78;5053980;28;20254;-75
2022/09/17 05:19:57;;;;;;;3.47;2.07;;;;;;;-145.69;100.00;71903.88;5078242;28;20675;-75
2022/09/17 05:22:23;;;;;;;6.10;2.77;;;;;;;-145.69;100.00;71915.81;5094886;28;20201;-75
2022/09/17 05:24:50;;;;;;;2.67;1.80;;;;;;;-145.69;100.00;71915.81;5094621;28;20198;-75
2022/09/17 05:27:16;;;;;;;4.57;2.00;;;;;;;-145.69;100.00;71917.81;5094883;28;20249;-75
2022/09/17 05:29:44;;;;;;;5.07;2.27;;;;;;;-145.69;100.00;71907.84;5094210;28;20209;-75
2022/09/17 05:32:10;;;;;;;4.37;2.00;;;;;;;-145.69;100.00;71919.78;5078322;28;20201;-75
2022/09/17 05:34:40;;;;;;;4.23;2.13;;;;;;;-145.69;100.00;71909.84;5074518;28;20209;-75
2022/09/17 05:37:09;;;;;;;5.93;2.10;;;;;;;-145.69;100.00;71927.75;5074254;28;20226;-75
2022/09/17 05:39:36;;;;;;;6.07;2.27;;;;;;;-145.69;100.00;71917.81;5074227;28;20198;-76
2022/09/17 05:42:02;;;;;;;8.17;2.43;;;;;;;-145.69;100.00;71929.75;5074107;28;20202;-75
2022/09/17 05:44:28;;;;;;;6.70;2.27;;;;;;;-145.69;100.00;71917.81;5089624;28;20199;-76
2022/09/17 05:46:55;;;;;;;3.33;2.30;;;;;;;-145.69;100.00;71925.75;5094453;28;20255;-76
2022/09/17 05:49:22;;;;;;;2.30;1.87;;;;;;;-145.69;100.00;71903.88;5094041;28;20233;-76
2022/09/17 05:51:50;;;;;;;6.83;2.30;;;;;;;-145.69;100.00;71903.88;5093147;28;20834;-76
2022/09/17 05:54:18;;;;;;;5.47;2.00;;;;;;;-145.69;100.00;71909.84;5093915;28;20213;-76
2022/09/17 05:56:44;;;;;;;7.83;2.00;;;;;;;-145.69;100.00;71907.84;5077719;28;20702;-75
2022/09/17 05:59:11;;;;;;;4.13;1.90;;;;;;;-145.69;100.00;71911.84;5074020;28;20226;-75
2022/09/17 06:01:37;;;;;;;4.67;1.73;;;;;;;-145.69;100.00;71909.84;5073383;28;20211;-76
2022/09/17 06:04:04;;;;;;;8.43;2.13;;;;;;;-145.69;100.00;71903.88;5073872;28;20207;-76
2022/09/17 06:06:30;;;;;;;2.70;1.70;;;;;;;-145.69;100.00;71909.84;5073615;28;20226;-75
2022/09/17 06:08:59;;;;;;;6.80;1.80;;;;;;;-145.69;100.00;71917.81;5090404;28;20241;-76
2022/09/17 06:11:27;;;;;;;5.57;2.13;;;;;;;-145.69;100.00;71903.88;5094061;28;20205;-76
2022/09/17 06:13:53;;;;;;;4.50;1.97;;;;;;;-145.69;100.00;71909.84;5094065;28;20208;-76
2022/09/17 06:16:21;;;;;;;2.53;2.10;;;;;;;-145.69;100.00;71925.75;5093905;28;20201;-74
2022/09/17 06:18:48;;;;;;;2.37;1.93;;;;;;;-145.69;100.00;71917.81;5093763;28;20250;-76
2022/09/17 06:21:16;;;;;;;6.43;2.30;;;;;;;-145.69;100.00;71925.75;5075699;28;20576;-75
2022/09/17 06:23:43;;;;;;;6.57;2.00;;;;;;;-145.69;100.00;71919.78;5073391;28;20260;-76
2022/09/17 06:26:09;;;;;;;4.57;2.10;;;;;;;-145.69;100.00;71909.84;5073404;28;20210;-76
2022/09/17 06:28:37;;;;;;;6.70;2.20;;;;;;;-145.69;100.00;71899.88;5072567;28;20619;-76
2022/09/17 06:31:06;;;;;;;6.47;2.00;;;;;;;-145.69;100.00;71883.97;5073312;28;20202;-75
2022/09/17 06:33:33;;;;;;;6.17;1.90;;;;;;;-145.69;100.00;71883.97;5090402;28;20205;-75
2022/09/17 06:36:02;;;;;;;2.30;1.80;;;;;;;-145.69;100.00;71874.03;5093706;28;20228;-76
2022/09/17 06:38:29;;;;;;;12.07;2.07;;;;;;;-145.69;100.00;71881.97;5093517;28;20198;-75
2022/09/17 06:40:56;;;;;;;4.13;1.77;;;;;;;-145.69;100.00;71874.03;5093239;28;20198;-76
2022/09/17 06:43:23;;;;;;;7.10;1.97;;;;;;;-145.69;100.00;71868.06;5093413;28;20201;-76
2022/09/17 06:45:55;;;;;;;6.63;1.80;;;;;;;-145.69;100.00;71872.03;5074101;28;20191;-76
2022/09/17 06:48:23;;;;;;;5.40;1.60;;;;;;;-145.69;100.00;71852.13;5072889;28;20226;-76
2022/09/17 06:50:53;;;;;;;2.83;1.70;;;;;;;-145.69;100.00;71858.09;5072840;28;20230;-76
2022/09/17 06:53:20;;;;;;;3.87;1.40;;;;;;;-145.69;100.00;71848.16;5073412;28;20237;-75
2022/09/17 06:55:46;;;;;;;7.10;2.43;;;;;;;-145.69;100.00;71850.13;5072668;28;20195;-76
2022/09/17 06:58:12;;;;;;;7.87;1.53;;;;;;;-145.69;100.00;71830.25;5092166;28;20197;-75
2022/09/17 07:00:39;;;;;;;9.37;1.63;;;;;;;-145.69;100.00;71836.22;5093190;28;20206;-75
2022/09/17 07:03:07;;;;;;;4.40;1.50;;;;;;;-145.69;100.00;71824.25;5092913;28;20194;-75
2022/09/17 07:05:33;;;;;;;2.57;1.43;;;;;;;-145.69;100.00;71836.22;5093147;28;20208;-75
2022/09/17 07:08:01;;;;;;;5.23;1.80;;;;;;;-145.69;100.00;71824.25;5092960;28;20222;-76
2022/09/17 07:10:27;;;;;;;4.70;1.40;;;;;;;-145.69;100.00;71786.47;5073911;28;20203;-75
2022/09/17 07:12:54;;;;;;;3.83;1.47;;;;;;;-145.69;100.00;71764.56;5054778;28;20608;-75
2022/09/17 07:15:21;;;;;;;6.00;1.30;;;;;;;-145.69;100.00;71746.66;5052224;28;20203;-75
2022/09/17 07:17:47;;;;;;;4.30;1.30;;;;;;;-145.69;100.00;71778.50;5052905;28;20261;-75
2022/09/17 07:20:15;;;;;;;9.17;1.40;;;;;;;-145.69;100.00;71782.47;5052726;28;20229;-76
2022/09/17 07:22:41;;;;;;;2.63;1.30;;;;;;;-145.69;100.00;71784.47;5091177;28;20194;-75
2022/09/17 07:25:09;;;;;;;9.67;1.60;;;;;;;-145.69;100.00;71822.28;5092916;28;20225;-74
2022/09/17 07:27:36;;;;;;;4.13;1.13;;;;;;;-145.69;100.00;71850.13;5092678;28;20194;-75
2022/09/17 07:30:03;;;;;;;6.77;1.40;;;;;;;-145.69;100.00;71850.13;5092791;28;20679;-75
2022/09/17 07:32:30;;;;;;;8.70;1.40;;;;;;;-145.69;100.00;71830.25;5092950;28;20202;-74
2022/09/17 07:34:57;;;;;;;4.70;1.13;;;;;;;-145.69;100.00;71860.09;5090949;28;20556;-75
2022/09/17 07:37:24;;;;;;;7.30;1.40;;;;;;;-145.69;100.00;71874.03;5092693;28;20576;-75
2022/09/17 07:39:51;;;;;;;4.63;1.27;;;;;;;-145.69;100.00;71856.09;5093387;28;20197;-76
2022/09/17 07:42:17;;;;;;;3.37;1.10;;;;;;;-145.69;100.00;71836.22;5096606;28;20198;-76
2022/09/17 07:44:45;;;;;;;3.93;1.20;;;;;;;-145.69;100.00;71832.22;5097037;28;20206;-77
2022/09/17 07:47:11;;;;;;;9.33;1.50;;;;;;;-145.69;100.00;71846.16;5077789;28;20191;-77
2022/09/17 07:49:38;;;;;;;4.10;1.50;;;;;;;-145.69;100.00;71832.22;5076097;28;20247;-75
2022/09/17 07:52:05;;;;;;;4.83;1.37;;;;;;;-145.69;100.00;71808.34;5076094;28;20206;-77
2022/09/17 07:54:33;;;;;;;4.77;1.50;;;;;;;-145.69;100.00;71824.25;5075744;28;20198;-76
2022/09/17 07:56:59;;;;;;;2.77;1.30;;;;;;;-145.69;100.00;71822.28;5054848;28;20207;-76
2022/09/17 07:59:26;;;;;;;7.77;1.60;;;;;;;-145.69;100.00;71784.47;5075998;28;20674;-76
2022/09/17 08:01:52;;;;;;;3.97;1.30;;;;;;;-145.69;100.00;71766.56;5075553;28;20198;-76
2022/09/17 08:04:19;;;;;;;3.67;1.10;;;;;;;-145.69;100.00;71768.53;5076059;28;20303;-76
2022/09/17 08:06:47;;;;;;;6.30;1.40;;;;;;;-145.69;100.00;71764.56;5092649;28;20198;-75
2022/09/17 08:09:14;;;;;;;6.60;1.90;;;;;;;-145.69;100.00;71780.50;5096070;28;20229;-76
2022/09/17 08:11:42;;;;;;;3.60;1.20;;;;;;;-145.69;100.00;71800.38;5095950;28;20198;-77
2022/09/17 08:14:11;;;;;;;4.73;1.40;;;;;;;-145.69;100.00;71810.34;5095649;28;20729;-77
2022/09/17 08:16:38;;;;;;;4.83;1.10;;;;;;;-145.69;100.00;71816.31;5081260;28;20244;-77
2022/09/17 08:19:05;;;;;;;6.97;1.67;;;;;;;-145.69;100.00;71812.31;5075620;28;20249;-76
2022/09/17 08:21:32;;;;;;;2.87;1.20;;;;;;;-145.69;100.00;71836.22;5078770;28;20264;-76
2022/09/17 08:23:58;;;;;;;8.63;1.23;;;;;;;-145.69;100.00;71840.19;5095364;28;20198;-76
2022/09/17 08:26:26;;;;;;;2.37;1.27;;;;;;;-145.69;100.00;71824.25;5095867;28;20202;-78
2022/09/17 08:28:55;;;;;;;3.83;1.10;;;;;;;-145.69;100.00;71804.38;5095531;28;20218;-77
2022/09/17 08:31:23;;;;;;;5.67;1.60;;;;;;;-145.69;100.00;71810.34;5083691;28;20655;-76
2022/09/17 08:33:50;;;;;;;8.83;1.40;;;;;;;-145.69;100.00;71832.22;5075487;28;20206;-76
2022/09/17 08:36:18;;;;;;;6.23;1.10;;;;;;;-145.69;100.00;71832.22;5075569;28;20530;-77
2022/09/17 08:38:45;;;;;;;3.87;1.03;;;;;;;-145.69;100.00;71852.13;5075060;28;20267;-77
2022/09/17 08:41:22;;;;;;;6.43;1.20;;;;;;;-145.69;100.00;71874.03;5075480;28;20211;-76
2022/09/17 08:44:01;;;;;;;4.80;1.00;;;;;;;-145.69;100.00;71878.00;5079283;28;20192;-76
2022/09/17 08:46:31;;;;;;;2.27;1.20;;;;;;;-145.69;100.00;71880.00;5095582;28;20202;-76
2022/09/17 08:49:07;;;;;;;5.27;1.50;;;;;;;-145.69;100.00;71876.00;5094653;28;20739;-76
2022/09/17 08:51:42;;;;;;;4.23;1.37;;;;;;;-145.69;100.00;71880.00;5094592;28;20221;-76
2022/09/17 08:54:16;;;;;;;4.07;1.20;;;;;;;-145.69;100.00;71911.84;5095434;28;20225;-77
2022/09/17 08:56:45;;;;;;;3.73;1.30;;;;;;;-145.69;100.00;71937.69;5084118;28;20199;-76
2022/09/17 08:59:22;;;;;;;4.87;1.30;;;;;;;-145.69;100.00;71937.69;5074969;28;20202;-75
2022/09/17 09:01:59;;;;;;;5.17;1.30;;;;;;;-145.69;100.00;71927.75;5074884;28;20203;-75
2022/09/17 09:04:55;;;;;;;9.17;1.30;;;;;;;-145.69;100.00;71925.75;5074420;28;20736;-76
2022/09/17 09:07:26;;;;;;;5.20;1.67;;;;;;;-145.69;100.00;71895.91;5072749;28;20581;-75
2022/09/17 09:10:05;;;;;;;3.83;1.30;;;;;;;-145.69;100.00;71876.00;5094490;28;20558;-75
2022/09/17 09:12:34;;;;;;;4.27;1.10;;;;;;;-145.69;100.00;71862.06;5094616;28;20193;-76
2022/09/17 09:15:08;;;;;;;3.13;1.10;;;;;;;-145.69;100.00;71874.03;5094701;28;20198;-76
2022/09/17 09:17:41;;;;;;;3.90;1.40;;;;;;;-145.69;100.00;71876.00;5088821;28;20231;-75
2022/09/17 09:20:20;;;;;;;4.50;1.40;;;;;;;-145.69;100.00;71868.06;5065950;28;20190;-76
2022/09/17 09:22:49;;;;;;;3.57;1.30;;;;;;;-145.69;100.00;71852.13;5094395;28;20252;-78
2022/09/17 09:25:22;;;;;;;2.80;1.10;;;;;;;-145.69;100.00;71870.03;5094493;28;20305;-75
2022/09/17 09:28:00;;;;;;;2.40;1.00;;;;;;;-145.69;100.00;71868.06;5094450;28;20208;-76
2022/09/17 09:30:36;;;;;;;6.27;1.50;;;;;;;-145.69;100.00;71832.22;5094664;28;20245;-75
2022/09/17 09:33:11;;;;;;;2.63;1.20;;;;;;;-145.69;100.00;71816.31;5082639;28;20307;-75
2022/09/17 09:35:42;;;;;;;3.33;1.00;;;;;;;-145.69;100.00;71776.50;5073889;28;20202;-75
2022/09/17 09:38:18;;;;;;;3.30;0.90;;;;;;;-145.69;100.00;71772.53;5074019;28;20650;-77
2022/09/17 09:40:51;;;;;;;2.50;0.90;;;;;;;-145.69;100.00;71766.56;5073974;28;20210;-77
2022/09/17 09:43:30;;;;;;;1.57;0.70;;;;;;;-145.69;100.00;71788.44;5074439;28;20198;-74
2022/09/17 09:46:12;;;;;;;3.27;1.00;;;;;;;-145.69;100.00;71770.53;5056133;28;20214;-76
2022/09/17 09:48:47;;;;;;;3.43;0.73;;;;;;;-145.69;100.00;71776.50;5073656;28;20222;-77
2022/09/17 09:51:31;;;;;;;4.00;1.10;;;;;;;-145.69;100.00;71734.72;5073892;28;20194;-76
2022/09/17 09:54:13;;;;;;;3.33;0.90;;;;;;;-145.69;100.00;71716.81;5073861;28;20199;-78
2022/09/17 09:56:51;;;;;;;1.47;0.70;;;;;;;-145.69;100.00;71690.94;5083445;28;20251;-76
2022/09/17 09:59:19;;;;;;;1.37;0.80;;;;;;;-145.69;100.00;71716.81;5093916;28;20204;-77
2022/09/17 10:01:47;;;;;;;1.20;0.70;;;;;;;-145.69;100.00;71794.41;5094032;28;20199;-76
2022/09/17 10:04:17;;;;;;;2.67;0.67;;;;;;;-145.69;100.00;71812.31;5093546;28;20202;-76
2022/09/17 10:06:45;;;;;;;2.43;0.97;;;;;;;-145.69;100.00;71784.47;5093852;28;20248;-76
2022/09/17 10:09:14;;;;;;;3.03;1.07;;;;;;;-145.69;100.00;71798.41;5082668;28;20219;-76
2022/09/17 10:11:41;;;;;;;4.70;0.97;;;;;;;-145.69;100.00;71796.41;5073190;28;20657;-77
2022/09/17 10:14:21;;;;;;;1.33;0.90;;;;;;;-145.69;100.00;71796.41;5073298;28;20205;-76
2022/09/17 10:16:49;;;;;;;4.43;0.93;;;;;;;-145.69;100.00;71766.56;5073312;28;20790;-76
2022/09/17 10:19:23;;;;;;;2.30;0.70;;;;;;;-145.69;100.00;71748.66;5074082;28;20207;-75
2022/09/17 10:21:50;;;;;;;1.87;0.63;;;;;;;-145.69;100.00;71768.53;5073380;28;20202;-75
2022/09/17 10:24:24;;;;;;;1.87;0.63;;;;;;;-145.69;100.00;71742.69;5073121;28;20203;-76
2022/09/17 10:26:51;;;;;;;5.57;0.80;;;;;;;-145.69;100.00;71726.75;5073317;28;20206;-75
2022/09/17 10:29:20;;;;;;;3.67;0.90;;;;;;;-145.69;100.00;71712.81;5092913;28;20281;-75
2022/09/17 10:31:50;;;;;;;3.23;1.00;;;;;;;-145.69;100.00;71686.97;5092974;28;20198;-77
2022/09/17 10:34:20;;;;;;;3.23;0.80;;;;;;;-145.69;100.00;71696.91;5093525;28;20202;-77
2022/09/17 10:36:47;;;;;;;2.30;0.63;;;;;;;-145.69;100.00;71700.88;5093579;28;20228;-77
2022/09/17 10:39:30;;;;;;;1.97;0.83;;;;;;;-145.69;100.00;71716.81;5091391;28;20202;-76
2022/09/17 10:41:58;;;;;;;5.10;1.00;;;;;;;-145.69;100.00;71700.88;5072904;28;20300;-76
2022/09/17 10:44:27;;;;;;;3.07;0.90;;;;;;;-145.69;100.00;71682.97;5072940;28;20199;-76
2022/09/17 10:47:02;;;;;;;2.70;0.80;;;;;;;-145.69;100.00;71661.09;5072832;28;20206;-76
2022/09/17 10:49:37;;;;;;;3.77;1.13;;;;;;;-145.69;100.00;71696.91;5072634;28;20284;-76
2022/09/17 10:52:10;;;;;;;4.80;1.13;;;;;;;-145.69;100.00;71736.72;5080475;28;20551;-76
2022/09/17 10:55:04;;;;;;;10.57;1.17;;;;;;;-145.69;100.00;71762.56;5093253;28;20607;-76
2022/09/17 10:57:46;;;;;;;1.97;0.97;;;;;;;-145.69;100.00;71796.41;5092991;28;20197;-76
2022/09/17 11:00:17;;;;;;;3.97;1.00;;;;;;;-145.69;100.00;71780.50;5092984;28;20292;-76
2022/09/17 11:03:14;;;;;;;1.57;0.90;;;;;;;-145.69;100.00;71752.63;5093052;28;20202;-76
2022/09/17 11:05:58;;;;;;;7.07;1.00;;;;;;;-145.69;100.00;71712.81;5057804;28;20213;-76
2022/09/17 11:08:33;;;;;;;2.70;1.10;;;;;;;-145.69;100.00;71643.19;5072536;28;20561;-75
2022/09/17 11:11:08;;;;;;;2.23;0.90;;;;;;;-145.69;100.00;71635.22;5072354;28;20246;-76
2022/09/17 11:13:41;;;;;;;2.57;0.90;;;;;;;-145.69;100.00;71647.16;5072513;28;20669;-76
2022/09/17 11:16:19;;;;;;;6.17;1.00;;;;;;;-145.69;100.00;71651.13;5066404;28;20205;-75
2022/09/17 11:18:55;;;;;;;3.80;1.00;;;;;;;-145.69;100.00;71603.38;5092774;28;20305;-75
2022/09/17 11:21:46;;;;;;;4.97;1.00;;;;;;;-145.69;100.00;71597.41;5064427;28;20206;-76
2022/09/17 11:24:44;;;;;;;7.57;1.63;;;;;;;-145.69;100.00;71565.56;5052653;28;20207;-76